sensor_id;sensor_type;location;lat;lon;timestamp;temperature;humidity
34877;DHT22;21086;44.780;17.194;2023-09-19T00:00:43;24.30;99.90
34877;DHT22;21086;44.780;17.194;2023-09-19T00:03:31;24.70;99.90
34877;DHT22;21086;44.780;17.194;2023-09-19T00:06:18;25.00;99.90
34877;DHT22;21086;44.780;17.194;2023-09-19T00:09:07;25.20;99.90
34877;DHT22;21086;44.780;17.194;2023-09-19T00:12:00;25.30;99.90
34877;DHT22;21086;44.780;17.194;2023-09-19T00:14:48;25.50;99.90
34877;DHT22;21086;44.780;17.194;2023-09-19T00:17:35;25.50;99.90
34877;DHT22;21086;44.780;17.194;2023-09-19T00:20:24;25.60;99.90
34877;DHT22;21086;44.780;17.194;2023-09-19T00:23:11;25.80;99.90
34877;DHT22;21086;44.780;17.194;2023-09-19T00:25:59;25.80;99.90
34877;DHT22;21086;44.780;17.194;2023-09-19T00:28:47;25.80;99.90
34877;DHT22;21086;44.780;17.194;2023-09-19T00:31:35;25.80;99.90
34877;DHT22;21086;44.780;17.194;2023-09-19T00:34:24;25.70;99.90
34877;DHT22;21086;44.780;17.194;2023-09-19T00:37:12;25.70;99.90
34877;DHT22;21086;44.780;17.194;2023-09-19T00:39:59;25.70;99.90
34877;DHT22;21086;44.780;17.194;2023-09-19T00:42:48;25.60;99.90
34877;DHT22;21086;44.780;17.194;2023-09-19T00:45:37;25.60;99.90
34877;DHT22;21086;44.780;17.194;2023-09-19T00:48:26;25.50;99.90
34877;DHT22;21086;44.780;17.194;2023-09-19T00:51:16;25.50;99.90
34877;DHT22;21086;44.780;17.194;2023-09-19T00:54:06;25.50;99.90
34877;DHT22;21086;44.780;17.194;2023-09-19T00:56:55;25.50;99.90
34877;DHT22;21086;44.780;17.194;2023-09-19T00:59:43;25.50;99.90
34877;DHT22;21086;44.780;17.194;2023-09-19T01:02:31;25.40;99.90
34877;DHT22;21086;44.780;17.194;2023-09-19T01:05:19;25.30;99.90
34877;DHT22;21086;44.780;17.194;2023-09-19T01:08:06;25.30;99.90
34877;DHT22;21086;44.780;17.194;2023-09-19T01:11:00;25.30;99.90
34877;DHT22;21086;44.780;17.194;2023-09-19T01:20:15;24.80;99.90
34877;DHT22;21086;44.780;17.194;2023-09-19T01:32:08;24.20;99.90
34877;DHT22;21086;44.780;17.194;2023-09-19T01:34:57;24.30;99.90
34877;DHT22;21086;44.780;17.194;2023-09-19T01:37:51;24.70;99.90
34877;DHT22;21086;44.780;17.194;2023-09-19T01:40:46;24.80;99.90
34877;DHT22;21086;44.780;17.194;2023-09-19T01:43:42;24.80;99.90
34877;DHT22;21086;44.780;17.194;2023-09-19T01:46:39;24.80;99.90
34877;DHT22;21086;44.780;17.194;2023-09-19T01:49:55;24.90;99.90
34877;DHT22;21086;44.780;17.194;2023-09-19T01:52:59;24.80;99.90
34877;DHT22;21086;44.780;17.194;2023-09-19T01:55:52;24.70;99.90
34877;DHT22;21086;44.780;17.194;2023-09-19T01:58:45;24.60;99.90
34877;DHT22;21086;44.780;17.194;2023-09-19T02:01:34;24.60;99.90
34877;DHT22;21086;44.780;17.194;2023-09-19T02:04:26;24.50;99.90
34877;DHT22;21086;44.780;17.194;2023-09-19T02:07:14;24.40;99.90
34877;DHT22;21086;44.780;17.194;2023-09-19T02:10:02;24.40;99.90
34877;DHT22;21086;44.780;17.194;2023-09-19T02:12:53;24.40;99.90
34877;DHT22;21086;44.780;17.194;2023-09-19T02:15:40;24.40;99.90
34877;DHT22;21086;44.780;17.194;2023-09-19T02:18:28;24.30;99.90
34877;DHT22;21086;44.780;17.194;2023-09-19T02:21:15;24.10;99.90
34877;DHT22;21086;44.780;17.194;2023-09-19T02:24:04;24.00;99.90
34877;DHT22;21086;44.780;17.194;2023-09-19T02:26:51;23.90;99.90
34877;DHT22;21086;44.780;17.194;2023-09-19T02:29:39;23.90;99.90
34877;DHT22;21086;44.780;17.194;2023-09-19T02:32:26;23.80;99.90
34877;DHT22;21086;44.780;17.194;2023-09-19T02:35:14;23.80;99.90
34877;DHT22;21086;44.780;17.194;2023-09-19T02:38:02;23.80;99.90
34877;DHT22;21086;44.780;17.194;2023-09-19T02:40:53;23.70;99.90
34877;DHT22;21086;44.780;17.194;2023-09-19T02:43:42;23.60;99.90
34877;DHT22;21086;44.780;17.194;2023-09-19T02:46:30;23.60;99.90
34877;DHT22;21086;44.780;17.194;2023-09-19T02:49:17;23.50;99.90
34877;DHT22;21086;44.780;17.194;2023-09-19T02:52:05;23.40;99.90
34877;DHT22;21086;44.780;17.194;2023-09-19T02:54:54;23.30;99.90
34877;DHT22;21086;44.780;17.194;2023-09-19T02:57:46;23.20;99.90
34877;DHT22;21086;44.780;17.194;2023-09-19T03:00:33;23.10;99.90
34877;DHT22;21086;44.780;17.194;2023-09-19T03:03:23;22.90;99.90
34877;DHT22;21086;44.780;17.194;2023-09-19T03:06:11;22.90;99.90
34877;DHT22;21086;44.780;17.194;2023-09-19T03:09:00;22.80;99.90
34877;DHT22;21086;44.780;17.194;2023-09-19T03:11:47;22.70;99.90
34877;DHT22;21086;44.780;17.194;2023-09-19T03:14:34;22.70;99.90
34877;DHT22;21086;44.780;17.194;2023-09-19T03:17:22;22.60;99.90
34877;DHT22;21086;44.780;17.194;2023-09-19T03:20:11;22.60;99.90
34877;DHT22;21086;44.780;17.194;2023-09-19T03:23:00;22.50;99.90
34877;DHT22;21086;44.780;17.194;2023-09-19T03:25:47;22.50;99.90
34877;DHT22;21086;44.780;17.194;2023-09-19T03:28:35;22.50;99.90
34877;DHT22;21086;44.780;17.194;2023-09-19T03:31:22;22.50;99.90
34877;DHT22;21086;44.780;17.194;2023-09-19T03:34:10;22.40;99.90
34877;DHT22;21086;44.780;17.194;2023-09-19T03:36:57;22.40;99.90
34877;DHT22;21086;44.780;17.194;2023-09-19T03:39:45;22.30;99.90
34877;DHT22;21086;44.780;17.194;2023-09-19T03:42:32;22.30;99.90
34877;DHT22;21086;44.780;17.194;2023-09-19T03:45:19;22.20;99.90
34877;DHT22;21086;44.780;17.194;2023-09-19T03:48:10;22.10;99.90
34877;DHT22;21086;44.780;17.194;2023-09-19T03:50:57;22.10;99.90
34877;DHT22;21086;44.780;17.194;2023-09-19T03:53:45;22.10;99.90
34877;DHT22;21086;44.780;17.194;2023-09-19T03:56:32;21.90;99.90
34877;DHT22;21086;44.780;17.194;2023-09-19T03:59:19;21.80;99.90
34877;DHT22;21086;44.780;17.194;2023-09-19T04:02:07;21.80;99.90
34877;DHT22;21086;44.780;17.194;2023-09-19T04:04:58;21.70;99.90
34877;DHT22;21086;44.780;17.194;2023-09-19T04:07:46;21.60;99.90
34877;DHT22;21086;44.780;17.194;2023-09-19T04:10:33;21.60;99.90
34877;DHT22;21086;44.780;17.194;2023-09-19T04:13:21;21.50;99.90
34877;DHT22;21086;44.780;17.194;2023-09-19T04:16:08;21.40;99.90
34877;DHT22;21086;44.780;17.194;2023-09-19T04:18:56;21.20;99.90
34877;DHT22;21086;44.780;17.194;2023-09-19T04:21:44;21.20;99.90
34877;DHT22;21086;44.780;17.194;2023-09-19T04:24:31;21.20;99.90
34877;DHT22;21086;44.780;17.194;2023-09-19T04:27:19;21.30;99.90
34877;DHT22;21086;44.780;17.194;2023-09-19T04:30:07;21.30;99.90
34877;DHT22;21086;44.780;17.194;2023-09-19T04:32:58;21.30;99.90
34877;DHT22;21086;44.780;17.194;2023-09-19T04:35:52;21.30;99.90
34877;DHT22;21086;44.780;17.194;2023-09-19T04:38:39;21.30;99.90
34877;DHT22;21086;44.780;17.194;2023-09-19T04:41:27;21.20;99.90
34877;DHT22;21086;44.780;17.194;2023-09-19T04:44:14;21.10;99.90
34877;DHT22;21086;44.780;17.194;2023-09-19T04:47:03;21.20;99.90
34877;DHT22;21086;44.780;17.194;2023-09-19T04:49:50;21.10;99.90
34877;DHT22;21086;44.780;17.194;2023-09-19T04:52:41;21.20;99.90
34877;DHT22;21086;44.780;17.194;2023-09-19T04:55:29;21.20;99.90
34877;DHT22;21086;44.780;17.194;2023-09-19T04:58:17;21.20;99.90
34877;DHT22;21086;44.780;17.194;2023-09-19T05:01:06;21.30;99.90
34877;DHT22;21086;44.780;17.194;2023-09-19T05:03:58;21.30;99.90
34877;DHT22;21086;44.780;17.194;2023-09-19T05:06:45;21.40;99.90
34877;DHT22;21086;44.780;17.194;2023-09-19T05:09:33;21.50;99.90
34877;DHT22;21086;44.780;17.194;2023-09-19T05:12:23;21.50;99.90
34877;DHT22;21086;44.780;17.194;2023-09-19T05:15:11;21.60;99.90
34877;DHT22;21086;44.780;17.194;2023-09-19T05:17:59;21.60;99.90
34877;DHT22;21086;44.780;17.194;2023-09-19T05:20:47;21.80;99.90
34877;DHT22;21086;44.780;17.194;2023-09-19T05:23:35;21.70;99.90
34877;DHT22;21086;44.780;17.194;2023-09-19T05:26:24;21.80;99.90
34877;DHT22;21086;44.780;17.194;2023-09-19T05:29:13;21.90;99.90
34877;DHT22;21086;44.780;17.194;2023-09-19T05:32:08;22.00;99.90
34877;DHT22;21086;44.780;17.194;2023-09-19T05:34:59;22.10;99.90
34877;DHT22;21086;44.780;17.194;2023-09-19T05:37:50;22.30;99.90
34877;DHT22;21086;44.780;17.194;2023-09-19T05:40:38;22.40;99.90
34877;DHT22;21086;44.780;17.194;2023-09-19T05:43:30;22.30;99.90
34877;DHT22;21086;44.780;17.194;2023-09-19T05:46:17;22.20;99.90
34877;DHT22;21086;44.780;17.194;2023-09-19T05:49:05;22.20;99.90
34877;DHT22;21086;44.780;17.194;2023-09-19T05:51:54;22.00;99.90
34877;DHT22;21086;44.780;17.194;2023-09-19T05:54:43;22.10;99.90
34877;DHT22;21086;44.780;17.194;2023-09-19T05:57:30;22.10;99.90
34877;DHT22;21086;44.780;17.194;2023-09-19T06:00:23;22.20;99.90
34877;DHT22;21086;44.780;17.194;2023-09-19T06:03:10;22.20;99.90
34877;DHT22;21086;44.780;17.194;2023-09-19T06:06:04;22.40;99.90
34877;DHT22;21086;44.780;17.194;2023-09-19T06:08:53;22.50;99.90
34877;DHT22;21086;44.780;17.194;2023-09-19T06:11:43;22.70;99.90
34877;DHT22;21086;44.780;17.194;2023-09-19T06:14:31;22.90;99.90
34877;DHT22;21086;44.780;17.194;2023-09-19T06:17:18;23.20;99.90
34877;DHT22;21086;44.780;17.194;2023-09-19T06:20:07;23.50;99.90
34877;DHT22;21086;44.780;17.194;2023-09-19T06:22:59;23.70;99.90
34877;DHT22;21086;44.780;17.194;2023-09-19T06:25:49;24.00;99.90
34877;DHT22;21086;44.780;17.194;2023-09-19T06:28:36;24.40;99.90
34877;DHT22;21086;44.780;17.194;2023-09-19T06:31:24;24.60;99.90
34877;DHT22;21086;44.780;17.194;2023-09-19T06:34:22;24.70;99.90
34877;DHT22;21086;44.780;17.194;2023-09-19T06:37:23;24.80;99.90
34877;DHT22;21086;44.780;17.194;2023-09-19T06:40:15;25.00;99.90
34877;DHT22;21086;44.780;17.194;2023-09-19T06:43:03;25.10;99.90
34877;DHT22;21086;44.780;17.194;2023-09-19T06:45:52;25.20;99.90
34877;DHT22;21086;44.780;17.194;2023-09-19T06:48:42;25.40;99.90
34877;DHT22;21086;44.780;17.194;2023-09-19T06:51:37;25.60;99.90
34877;DHT22;21086;44.780;17.194;2023-09-19T06:54:24;25.80;99.90
34877;DHT22;21086;44.780;17.194;2023-09-19T06:57:12;26.20;99.90
34877;DHT22;21086;44.780;17.194;2023-09-19T07:00:01;26.40;99.90
34877;DHT22;21086;44.780;17.194;2023-09-19T07:03:06;26.80;99.90
34877;DHT22;21086;44.780;17.194;2023-09-19T07:05:59;27.20;99.90
34877;DHT22;21086;44.780;17.194;2023-09-19T07:08:46;27.40;99.90
34877;DHT22;21086;44.780;17.194;2023-09-19T07:11:34;27.60;99.90
34877;DHT22;21086;44.780;17.194;2023-09-19T07:14:21;27.90;99.90
34877;DHT22;21086;44.780;17.194;2023-09-19T07:17:09;28.20;99.90
34877;DHT22;21086;44.780;17.194;2023-09-19T07:19:56;28.40;99.90
34877;DHT22;21086;44.780;17.194;2023-09-19T07:22:45;28.50;99.90
34877;DHT22;21086;44.780;17.194;2023-09-19T07:25:32;28.50;99.90
34877;DHT22;21086;44.780;17.194;2023-09-19T07:28:19;28.50;99.90
34877;DHT22;21086;44.780;17.194;2023-09-19T07:31:07;28.80;99.90
34877;DHT22;21086;44.780;17.194;2023-09-19T07:33:57;28.90;99.90
34877;DHT22;21086;44.780;17.194;2023-09-19T07:36:44;28.90;99.90
34877;DHT22;21086;44.780;17.194;2023-09-19T07:39:31;29.00;99.90
34877;DHT22;21086;44.780;17.194;2023-09-19T07:42:19;29.00;99.90
34877;DHT22;21086;44.780;17.194;2023-09-19T07:45:07;29.10;99.90
34877;DHT22;21086;44.780;17.194;2023-09-19T07:47:54;29.20;99.90
34877;DHT22;21086;44.780;17.194;2023-09-19T07:50:42;29.30;99.90
34877;DHT22;21086;44.780;17.194;2023-09-19T07:53:35;29.50;99.90
34877;DHT22;21086;44.780;17.194;2023-09-19T07:56:22;29.60;99.90
34877;DHT22;21086;44.780;17.194;2023-09-19T07:59:10;29.60;99.90
34877;DHT22;21086;44.780;17.194;2023-09-19T08:01:58;29.60;99.90
34877;DHT22;21086;44.780;17.194;2023-09-19T08:04:46;29.60;99.90
34877;DHT22;21086;44.780;17.194;2023-09-19T08:07:33;29.50;99.90
34877;DHT22;21086;44.780;17.194;2023-09-19T08:10:21;29.40;99.90
34877;DHT22;21086;44.780;17.194;2023-09-19T08:13:08;29.20;99.90
34877;DHT22;21086;44.780;17.194;2023-09-19T08:16:03;29.10;99.90
34877;DHT22;21086;44.780;17.194;2023-09-19T08:18:50;29.00;99.90
34877;DHT22;21086;44.780;17.194;2023-09-19T08:21:40;28.90;99.90
34877;DHT22;21086;44.780;17.194;2023-09-19T08:24:30;29.00;99.90
34877;DHT22;21086;44.780;17.194;2023-09-19T08:27:18;28.90;99.90
34877;DHT22;21086;44.780;17.194;2023-09-19T08:30:06;28.90;99.90
34877;DHT22;21086;44.780;17.194;2023-09-19T08:32:58;28.90;99.90
34877;DHT22;21086;44.780;17.194;2023-09-19T08:35:46;29.10;99.90
34877;DHT22;21086;44.780;17.194;2023-09-19T08:38:35;29.40;99.90
34877;DHT22;21086;44.780;17.194;2023-09-19T08:41:22;29.70;99.90
34877;DHT22;21086;44.780;17.194;2023-09-19T08:44:09;29.80;99.90
34877;DHT22;21086;44.780;17.194;2023-09-19T08:47:10;30.10;99.90
34877;DHT22;21086;44.780;17.194;2023-09-19T08:53:11;29.90;99.90
34877;DHT22;21086;44.780;17.194;2023-09-19T08:56:03;29.90;99.90
34877;DHT22;21086;44.780;17.194;2023-09-19T08:59:06;30.00;99.90
34877;DHT22;21086;44.780;17.194;2023-09-19T09:01:57;30.00;99.90
34877;DHT22;21086;44.780;17.194;2023-09-19T09:04:46;30.00;99.90
34877;DHT22;21086;44.780;17.194;2023-09-19T09:07:37;30.10;99.90
34877;DHT22;21086;44.780;17.194;2023-09-19T09:10:25;30.00;99.90
34877;DHT22;21086;44.780;17.194;2023-09-19T09:13:13;30.30;99.90
34877;DHT22;21086;44.780;17.194;2023-09-19T09:16:01;30.30;99.90
34877;DHT22;21086;44.780;17.194;2023-09-19T09:18:49;30.40;99.90
34877;DHT22;21086;44.780;17.194;2023-09-19T09:21:40;30.50;99.90
34877;DHT22;21086;44.780;17.194;2023-09-19T09:24:31;30.50;99.90
34877;DHT22;21086;44.780;17.194;2023-09-19T09:27:21;30.60;99.90
34877;DHT22;21086;44.780;17.194;2023-09-19T09:30:34;30.70;99.90
34877;DHT22;21086;44.780;17.194;2023-09-19T09:33:22;30.80;99.90
34877;DHT22;21086;44.780;17.194;2023-09-19T09:36:10;31.00;99.90
34877;DHT22;21086;44.780;17.194;2023-09-19T09:39:00;31.00;99.90
34877;DHT22;21086;44.780;17.194;2023-09-19T09:42:03;31.10;99.90
34877;DHT22;21086;44.780;17.194;2023-09-19T09:48:03;31.40;99.90
34877;DHT22;21086;44.780;17.194;2023-09-19T09:50:55;31.50;99.90
34877;DHT22;21086;44.780;17.194;2023-09-19T09:53:43;31.50;99.90
34877;DHT22;21086;44.780;17.194;2023-09-19T09:56:32;31.50;99.90
34877;DHT22;21086;44.780;17.194;2023-09-19T09:59:21;31.60;99.90
34877;DHT22;21086;44.780;17.194;2023-09-19T10:02:11;31.50;99.90
34877;DHT22;21086;44.780;17.194;2023-09-19T10:05:11;31.30;99.90
34877;DHT22;21086;44.780;17.194;2023-09-19T10:08:11;30.90;99.90
34877;DHT22;21086;44.780;17.194;2023-09-19T10:11:00;30.90;99.90
34877;DHT22;21086;44.780;17.194;2023-09-19T10:13:53;30.90;99.90
34877;DHT22;21086;44.780;17.194;2023-09-19T10:16:46;31.00;99.90
34877;DHT22;21086;44.780;17.194;2023-09-19T10:19:55;31.70;99.90
34877;DHT22;21086;44.780;17.194;2023-09-19T10:22:46;31.90;99.90
34877;DHT22;21086;44.780;17.194;2023-09-19T10:25:44;31.70;99.90
34877;DHT22;21086;44.780;17.194;2023-09-19T10:28:35;31.60;99.90
34877;DHT22;21086;44.780;17.194;2023-09-19T10:31:26;31.60;99.90
34877;DHT22;21086;44.780;17.194;2023-09-19T10:34:15;31.50;99.90
34877;DHT22;21086;44.780;17.194;2023-09-19T10:37:07;31.70;99.90
34877;DHT22;21086;44.780;17.194;2023-09-19T10:39:58;31.40;99.90
34877;DHT22;21086;44.780;17.194;2023-09-19T10:42:48;31.20;99.90
34877;DHT22;21086;44.780;17.194;2023-09-19T10:45:38;31.10;99.90
34877;DHT22;21086;44.780;17.194;2023-09-19T10:48:26;31.00;99.90
34877;DHT22;21086;44.780;17.194;2023-09-19T10:51:21;31.00;99.90
34877;DHT22;21086;44.780;17.194;2023-09-19T10:54:13;31.00;99.90
34877;DHT22;21086;44.780;17.194;2023-09-19T10:57:03;31.00;99.90
34877;DHT22;21086;44.780;17.194;2023-09-19T11:06:06;30.40;99.90
34877;DHT22;21086;44.780;17.194;2023-09-19T11:09:04;30.50;99.90
34877;DHT22;21086;44.780;17.194;2023-09-19T11:12:03;30.60;99.90
34877;DHT22;21086;44.780;17.194;2023-09-19T11:14:51;30.70;99.90
34877;DHT22;21086;44.780;17.194;2023-09-19T11:17:41;31.00;99.90
34877;DHT22;21086;44.780;17.194;2023-09-19T11:20:29;31.20;99.90
34877;DHT22;21086;44.780;17.194;2023-09-19T11:23:29;32.10;99.90
34877;DHT22;21086;44.780;17.194;2023-09-19T11:26:43;32.90;99.90
34877;DHT22;21086;44.780;17.194;2023-09-19T11:29:34;35.10;99.90
34877;DHT22;21086;44.780;17.194;2023-09-19T11:33:15;38.00;99.90
34877;DHT22;21086;44.780;17.194;2023-09-19T11:36:11;39.50;99.90
34877;DHT22;21086;44.780;17.194;2023-09-19T11:39:02;39.70;99.90
34877;DHT22;21086;44.780;17.194;2023-09-19T11:41:56;38.70;99.90
34877;DHT22;21086;44.780;17.194;2023-09-19T11:44:47;38.00;99.90
34877;DHT22;21086;44.780;17.194;2023-09-19T11:47:38;37.50;99.90
34877;DHT22;21086;44.780;17.194;2023-09-19T11:50:28;36.20;99.90
34877;DHT22;21086;44.780;17.194;2023-09-19T11:53:15;35.20;99.90
34877;DHT22;21086;44.780;17.194;2023-09-19T11:56:07;34.20;99.90
34877;DHT22;21086;44.780;17.194;2023-09-19T11:58:57;33.30;99.90
34877;DHT22;21086;44.780;17.194;2023-09-19T12:01:51;32.40;99.90
34877;DHT22;21086;44.780;17.194;2023-09-19T12:04:45;31.60;99.90
34877;DHT22;21086;44.780;17.194;2023-09-19T12:07:43;30.90;99.90
34877;DHT22;21086;44.780;17.194;2023-09-19T12:10:33;30.20;99.90
34877;DHT22;21086;44.780;17.194;2023-09-19T12:13:21;29.30;99.90
34877;DHT22;21086;44.780;17.194;2023-09-19T12:16:27;28.80;99.90
34877;DHT22;21086;44.780;17.194;2023-09-19T12:19:19;28.00;99.90
34877;DHT22;21086;44.780;17.194;2023-09-19T12:22:10;27.70;99.90
34877;DHT22;21086;44.780;17.194;2023-09-19T12:25:06;27.40;99.90
34877;DHT22;21086;44.780;17.194;2023-09-19T12:27:54;27.20;99.90
34877;DHT22;21086;44.780;17.194;2023-09-19T12:30:42;26.90;99.90
34877;DHT22;21086;44.780;17.194;2023-09-19T12:33:29;26.60;99.90
34877;DHT22;21086;44.780;17.194;2023-09-19T12:36:25;26.40;99.90
34877;DHT22;21086;44.780;17.194;2023-09-19T12:39:22;26.30;99.90
34877;DHT22;21086;44.780;17.194;2023-09-19T12:42:11;26.20;99.90
34877;DHT22;21086;44.780;17.194;2023-09-19T12:45:02;25.60;99.90
34877;DHT22;21086;44.780;17.194;2023-09-19T12:48:22;24.90;99.90
34877;DHT22;21086;44.780;17.194;2023-09-19T12:51:22;24.40;99.90
34877;DHT22;21086;44.780;17.194;2023-09-19T12:54:13;24.10;99.90
34877;DHT22;21086;44.780;17.194;2023-09-19T12:57:04;23.80;99.90
34877;DHT22;21086;44.780;17.194;2023-09-19T12:59:52;23.80;99.90
34877;DHT22;21086;44.780;17.194;2023-09-19T13:03:10;23.70;99.90
34877;DHT22;21086;44.780;17.194;2023-09-19T13:05:58;23.90;99.90
34877;DHT22;21086;44.780;17.194;2023-09-19T13:08:47;24.00;99.90
34877;DHT22;21086;44.780;17.194;2023-09-19T13:11:42;23.90;99.90
34877;DHT22;21086;44.780;17.194;2023-09-19T13:14:31;23.80;99.90
34877;DHT22;21086;44.780;17.194;2023-09-19T13:17:20;23.90;99.90
34877;DHT22;21086;44.780;17.194;2023-09-19T13:20:26;24.00;99.90
34877;DHT22;21086;44.780;17.194;2023-09-19T13:23:28;24.20;99.90
34877;DHT22;21086;44.780;17.194;2023-09-19T13:26:16;24.50;99.90
34877;DHT22;21086;44.780;17.194;2023-09-19T13:29:03;24.90;99.90
34877;DHT22;21086;44.780;17.194;2023-09-19T13:31:51;25.10;99.90
34877;DHT22;21086;44.780;17.194;2023-09-19T13:34:42;25.40;99.90
34877;DHT22;21086;44.780;17.194;2023-09-19T13:37:29;25.70;99.90
34877;DHT22;21086;44.780;17.194;2023-09-19T13:40:17;26.00;99.90
34877;DHT22;21086;44.780;17.194;2023-09-19T13:43:04;26.30;99.90
34877;DHT22;21086;44.780;17.194;2023-09-19T13:45:53;26.50;99.90
34877;DHT22;21086;44.780;17.194;2023-09-19T13:48:41;26.60;99.90
34877;DHT22;21086;44.780;17.194;2023-09-19T13:51:32;26.40;99.90
34877;DHT22;21086;44.780;17.194;2023-09-19T13:54:19;26.40;99.90
34877;DHT22;21086;44.780;17.194;2023-09-19T13:57:08;26.20;99.90
34877;DHT22;21086;44.780;17.194;2023-09-19T13:59:57;26.50;99.90
34877;DHT22;21086;44.780;17.194;2023-09-19T14:02:44;26.80;99.90
34877;DHT22;21086;44.780;17.194;2023-09-19T14:05:33;26.70;99.90
34877;DHT22;21086;44.780;17.194;2023-09-19T14:08:20;26.40;99.90
34877;DHT22;21086;44.780;17.194;2023-09-19T14:11:08;26.30;99.90
34877;DHT22;21086;44.780;17.194;2023-09-19T14:13:56;26.10;99.90
34877;DHT22;21086;44.780;17.194;2023-09-19T14:16:46;25.60;99.90
34877;DHT22;21086;44.780;17.194;2023-09-19T14:19:33;25.00;99.90
34877;DHT22;21086;44.780;17.194;2023-09-19T14:22:24;24.60;99.90
34877;DHT22;21086;44.780;17.194;2023-09-19T14:25:11;24.50;99.90
34877;DHT22;21086;44.780;17.194;2023-09-19T14:27:59;24.40;99.90
34877;DHT22;21086;44.780;17.194;2023-09-19T14:30:46;24.30;99.90
34877;DHT22;21086;44.780;17.194;2023-09-19T14:33:33;24.20;99.90
34877;DHT22;21086;44.780;17.194;2023-09-19T14:36:21;24.10;99.90
34877;DHT22;21086;44.780;17.194;2023-09-19T14:39:11;23.80;99.90
34877;DHT22;21086;44.780;17.194;2023-09-19T14:42:01;23.80;99.90
34877;DHT22;21086;44.780;17.194;2023-09-19T14:44:48;23.90;99.90
34877;DHT22;21086;44.780;17.194;2023-09-19T14:47:37;24.00;99.90
34877;DHT22;21086;44.780;17.194;2023-09-19T14:50:24;24.10;99.90
34877;DHT22;21086;44.780;17.194;2023-09-19T14:53:13;24.40;99.90
34877;DHT22;21086;44.780;17.194;2023-09-19T14:56:01;24.80;99.90
34877;DHT22;21086;44.780;17.194;2023-09-19T14:58:51;25.10;99.90
34877;DHT22;21086;44.780;17.194;2023-09-19T15:01:39;25.00;99.90
34877;DHT22;21086;44.780;17.194;2023-09-19T15:04:30;24.90;99.90
34877;DHT22;21086;44.780;17.194;2023-09-19T15:07:17;25.40;99.90
34877;DHT22;21086;44.780;17.194;2023-09-19T15:10:05;25.90;99.90
34877;DHT22;21086;44.780;17.194;2023-09-19T15:12:54;26.50;99.90
34877;DHT22;21086;44.780;17.194;2023-09-19T15:15:41;27.80;99.90
34877;DHT22;21086;44.780;17.194;2023-09-19T15:18:30;29.70;99.90
34877;DHT22;21086;44.780;17.194;2023-09-19T15:21:18;31.30;99.90
34877;DHT22;21086;44.780;17.194;2023-09-19T15:24:05;32.10;99.90
34877;DHT22;21086;44.780;17.194;2023-09-19T15:26:56;33.50;99.90
34877;DHT22;21086;44.780;17.194;2023-09-19T15:29:43;35.10;99.90
34877;DHT22;21086;44.780;17.194;2023-09-19T15:32:31;35.70;99.90
34877;DHT22;21086;44.780;17.194;2023-09-19T15:35:19;36.00;99.90
34877;DHT22;21086;44.780;17.194;2023-09-19T15:38:06;35.90;99.90
34877;DHT22;21086;44.780;17.194;2023-09-19T15:40:54;35.30;99.90
34877;DHT22;21086;44.780;17.194;2023-09-19T15:43:42;34.50;99.90
34877;DHT22;21086;44.780;17.194;2023-09-19T15:46:33;34.70;99.90
34877;DHT22;21086;44.780;17.194;2023-09-19T15:49:22;35.20;99.90
34877;DHT22;21086;44.780;17.194;2023-09-19T15:52:10;35.70;99.90
34877;DHT22;21086;44.780;17.194;2023-09-19T15:54:57;35.90;99.90
34877;DHT22;21086;44.780;17.194;2023-09-19T15:57:44;34.90;99.90
34877;DHT22;21086;44.780;17.194;2023-09-19T16:00:32;33.90;99.90
34877;DHT22;21086;44.780;17.194;2023-09-19T16:03:23;33.20;99.90
34877;DHT22;21086;44.780;17.194;2023-09-19T16:06:14;33.50;99.90
34877;DHT22;21086;44.780;17.194;2023-09-19T16:09:01;33.00;99.90
34877;DHT22;21086;44.780;17.194;2023-09-19T16:11:50;32.50;99.90
34877;DHT22;21086;44.780;17.194;2023-09-19T16:14:38;31.70;99.90
34877;DHT22;21086;44.780;17.194;2023-09-19T16:17:25;31.50;99.90
34877;DHT22;21086;44.780;17.194;2023-09-19T16:20:12;30.90;99.90
34877;DHT22;21086;44.780;17.194;2023-09-19T16:23:00;29.70;99.90
34877;DHT22;21086;44.780;17.194;2023-09-19T16:25:48;29.30;99.90
34877;DHT22;21086;44.780;17.194;2023-09-19T16:28:49;28.90;99.90
34877;DHT22;21086;44.780;17.194;2023-09-19T16:31:36;27.90;99.90
34877;DHT22;21086;44.780;17.194;2023-09-19T16:34:24;27.10;99.90
34877;DHT22;21086;44.780;17.194;2023-09-19T16:37:12;26.20;99.90
34877;DHT22;21086;44.780;17.194;2023-09-19T16:40:01;25.50;99.90
34877;DHT22;21086;44.780;17.194;2023-09-19T16:42:49;25.10;99.90
34877;DHT22;21086;44.780;17.194;2023-09-19T16:45:36;24.80;99.90
34877;DHT22;21086;44.780;17.194;2023-09-19T16:48:26;24.70;99.90
34877;DHT22;21086;44.780;17.194;2023-09-19T16:51:14;24.40;99.90
34877;DHT22;21086;44.780;17.194;2023-09-19T16:54:03;25.00;99.90
34877;DHT22;21086;44.780;17.194;2023-09-19T16:56:50;23.90;99.90
34877;DHT22;21086;44.780;17.194;2023-09-19T16:59:38;23.90;99.90
34877;DHT22;21086;44.780;17.194;2023-09-19T17:02:26;23.70;99.90
34877;DHT22;21086;44.780;17.194;2023-09-19T17:05:15;23.60;99.90
34877;DHT22;21086;44.780;17.194;2023-09-19T17:08:08;23.60;99.90
34877;DHT22;21086;44.780;17.194;2023-09-19T17:11:06;23.30;99.90
34877;DHT22;21086;44.780;17.194;2023-09-19T17:13:56;23.10;99.90
34877;DHT22;21086;44.780;17.194;2023-09-19T17:16:44;23.10;99.90
34877;DHT22;21086;44.780;17.194;2023-09-19T17:19:32;22.90;99.90
34877;DHT22;21086;44.780;17.194;2023-09-19T17:22:19;22.90;99.90
34877;DHT22;21086;44.780;17.194;2023-09-19T17:25:07;22.90;99.90
34877;DHT22;21086;44.780;17.194;2023-09-19T17:27:54;22.80;99.90
34877;DHT22;21086;44.780;17.194;2023-09-19T17:30:43;22.70;99.90
34877;DHT22;21086;44.780;17.194;2023-09-19T17:33:30;22.50;99.90
34877;DHT22;21086;44.780;17.194;2023-09-19T17:39:06;22.50;99.90
34877;DHT22;21086;44.780;17.194;2023-09-19T17:41:55;22.40;99.90
34877;DHT22;21086;44.780;17.194;2023-09-19T17:44:43;22.40;99.90
34877;DHT22;21086;44.780;17.194;2023-09-19T17:47:30;22.30;99.90
34877;DHT22;21086;44.780;17.194;2023-09-19T17:50:17;22.40;99.90
34877;DHT22;21086;44.780;17.194;2023-09-19T17:53:05;22.30;99.90
34877;DHT22;21086;44.780;17.194;2023-09-19T17:55:53;22.30;99.90
34877;DHT22;21086;44.780;17.194;2023-09-19T17:58:41;22.20;99.90
34877;DHT22;21086;44.780;17.194;2023-09-19T18:01:32;22.20;99.90
34877;DHT22;21086;44.780;17.194;2023-09-19T18:04:19;22.20;99.90
34877;DHT22;21086;44.780;17.194;2023-09-19T18:07:07;22.20;99.90